createdAt,value
2019-03-22T00:00:10.358Z,58.40
2019-03-22T00:02:40.231Z,58.57
2019-03-22T00:05:10.621Z,58.03
2019-03-22T00:07:41.308Z,53.50
2019-03-22T00:10:11.902Z,53.53
2019-03-22T00:12:42.902Z,50.67
2019-03-22T00:15:13.533Z,48.00
2019-03-22T00:17:43.445Z,57.93
2019-03-22T00:20:14.061Z,52.77
2019-03-22T00:22:44.265Z,47.07
2019-03-22T00:25:14.899Z,53.37
2019-03-22T00:27:45.183Z,53.73
2019-03-22T00:30:15.810Z,59.60
2019-03-22T00:32:46.494Z,54.77
2019-03-22T00:35:16.808Z,57.33
2019-03-22T00:37:46.966Z,54.23
2019-03-22T00:40:17.493Z,43.30
2019-03-22T00:42:48.131Z,46.87
2019-03-22T00:45:18.143Z,70.17
2019-03-22T00:47:48.984Z,60.93
2019-03-22T00:50:19.683Z,50.17
2019-03-22T00:52:49.897Z,53.50
2019-03-22T00:55:20.414Z,51.73
2019-03-22T00:57:50.748Z,57.50
2019-03-22T01:00:20.969Z,60.73
2019-03-22T01:02:51.505Z,54.20
2019-03-22T01:05:22.238Z,54.87
2019-03-22T01:07:53.113Z,63.10
2019-03-22T01:10:23.674Z,55.77
2019-03-22T01:12:54.355Z,61.53
2019-03-22T01:15:25.018Z,52.73
2019-03-22T01:17:55.654Z,64.17
2019-03-22T01:20:26.177Z,63.90
2019-03-22T01:22:56.030Z,60.53
2019-03-22T01:25:26.267Z,71.70
2019-03-22T01:27:57.126Z,61.83
2019-03-22T01:30:28.066Z,57.87
2019-03-22T01:32:58.430Z,65.53
2019-03-22T01:35:28.964Z,62.47
2019-03-22T01:37:59.231Z,56.07
2019-03-22T01:40:29.921Z,69.33
2019-03-22T01:43:00.208Z,62.10
2019-03-22T01:45:31.237Z,57.83
2019-03-22T01:48:01.615Z,62.50
2019-03-22T01:50:32.010Z,51.13
2019-03-22T01:53:02.174Z,55.97
2019-03-22T01:55:32.186Z,59.43
2019-03-22T01:58:02.782Z,47.93
2019-03-22T02:00:33.373Z,67.90
2019-03-22T02:03:03.955Z,60.13
2019-03-22T02:05:34.573Z,59.80
2019-03-22T02:08:04.858Z,50.87
2019-03-22T02:10:35.037Z,67.03
2019-03-22T02:13:05.703Z,57.70
2019-03-22T02:15:36.104Z,61.60
2019-03-22T02:18:06.573Z,61.63
2019-03-22T02:20:36.956Z,56.93
2019-03-22T02:23:07.491Z,78.07
2019-03-22T02:25:37.717Z,67.10
2019-03-22T02:28:07.923Z,53.20
2019-03-22T02:30:39.150Z,54.13
2019-03-22T02:33:09.855Z,62.70
2019-03-22T02:35:40.289Z,69.87
2019-03-22T02:38:10.626Z,76.07
2019-03-22T02:40:40.915Z,75.70
2019-03-22T02:43:11.498Z,64.03
2019-03-22T02:45:42.720Z,67.87
2019-03-22T02:48:13.066Z,68.17
2019-03-22T02:50:43.422Z,85.67
2019-03-22T02:53:13.306Z,74.80
2019-03-22T02:55:44.235Z,80.57
2019-03-22T02:58:21.070Z,79.03
2019-03-22T03:00:46.553Z,68.57
2019-03-22T03:03:17.200Z,67.80
2019-03-22T03:05:47.733Z,89.83
2019-03-22T03:08:17.594Z,73.83
2019-03-22T03:10:47.831Z,75.17
2019-03-22T03:13:17.775Z,73.37
2019-03-22T03:15:48.446Z,82.53
2019-03-22T03:18:19.129Z,84.83
2019-03-22T03:20:49.266Z,78.60
2019-03-22T03:23:19.566Z,85.73
2019-03-22T03:25:58.328Z,89.27
2019-03-22T03:28:36.860Z,86.90
2019-03-22T03:31:00.596Z,80.40
2019-03-22T03:33:31.481Z,72.27
2019-03-22T03:36:02.798Z,83.17
2019-03-22T03:38:32.659Z,81.07
2019-03-22T03:41:03.591Z,85.37
2019-03-22T03:43:33.850Z,67.00
2019-03-22T03:46:04.522Z,81.10
2019-03-22T03:48:34.730Z,66.53
2019-03-22T03:51:04.605Z,76.83
2019-03-22T03:53:37.251Z,83.93
2019-03-22T03:56:08.225Z,89.83
2019-03-22T03:58:51.532Z,82.37
2019-03-22T04:01:10.577Z,78.80
2019-03-22T04:03:40.898Z,100.60
2019-03-22T04:06:11.233Z,82.23
2019-03-22T04:08:42.174Z,74.63
2019-03-22T04:11:12.378Z,84.73
2019-03-22T04:13:42.664Z,69.83
2019-03-22T04:16:12.618Z,85.50
2019-03-22T04:18:43.519Z,78.83
2019-03-22T04:21:13.965Z,86.20
2019-03-22T04:23:44.700Z,92.27
2019-03-22T04:26:15.681Z,88.90
2019-03-22T04:28:46.639Z,94.97
2019-03-22T04:31:17.374Z,71.47
2019-03-22T04:33:48.065Z,97.70
2019-03-22T04:36:19.050Z,78.73
2019-03-22T04:38:49.415Z,72.20
2019-03-22T04:41:19.410Z,72.07
2019-03-22T04:43:50.050Z,94.73
2019-03-22T04:46:21.430Z,77.57
2019-03-22T04:48:53.533Z,82.53
2019-03-22T04:51:25.994Z,83.13
2019-03-22T04:54:02.562Z,92.97
2019-03-22T04:56:34.435Z,88.07
2019-03-22T04:59:18.402Z,71.37
2019-03-22T05:01:44.498Z,88.93
2019-03-22T05:04:15.887Z,72.73
2019-03-22T05:06:47.583Z,74.73
2019-03-22T05:09:18.585Z,105.83
2019-03-22T05:11:50.933Z,92.50
2019-03-22T05:14:22.428Z,82.70
2019-03-22T05:16:54.177Z,106.50
2019-03-22T05:19:27.420Z,126.60
2019-03-22T05:21:58.290Z,131.17
2019-03-22T05:24:30.797Z,124.33
2019-03-22T05:27:02.307Z,115.93
2019-03-22T05:29:35.474Z,132.07
2019-03-22T05:32:15.859Z,146.47
2019-03-22T05:34:46.378Z,120.70
2019-03-22T05:37:17.047Z,130.33
2019-03-22T05:39:47.685Z,144.70
2019-03-22T05:42:18.389Z,132.23
2019-03-22T05:44:48.629Z,140.47
2019-03-22T05:47:19.312Z,113.27
2019-03-22T05:49:50.654Z,108.93
2019-03-22T05:52:20.737Z,125.93
2019-03-22T05:54:50.957Z,138.57
2019-03-22T05:57:21.249Z,126.50
2019-03-22T05:59:51.478Z,121.33
2019-03-22T06:02:21.808Z,138.23
2019-03-22T06:04:52.134Z,122.93
2019-03-22T06:07:22.440Z,92.30
2019-03-22T06:09:52.740Z,116.07
2019-03-22T06:12:22.963Z,126.30
2019-03-22T06:14:53.776Z,98.53
2019-03-22T06:17:24.871Z,109.97
2019-03-22T06:19:55.169Z,118.70
2019-03-22T06:22:25.816Z,84.53
2019-03-22T06:24:55.823Z,88.33
2019-03-22T06:27:26.589Z,110.77
2019-03-22T06:29:56.953Z,98.23
2019-03-22T06:32:27.554Z,96.37
2019-03-22T06:34:59.793Z,108.07
2019-03-22T06:37:30.224Z,84.43
2019-03-22T06:40:00.563Z,103.27
2019-03-22T06:42:34.058Z,98.47
2019-03-22T06:45:08.010Z,97.47
2019-03-22T06:47:38.298Z,96.60
2019-03-22T06:50:08.568Z,97.87
2019-03-22T06:52:38.782Z,101.10
2019-03-22T06:55:09.925Z,96.00
2019-03-22T06:57:41.413Z,98.87
2019-03-22T07:00:12.268Z,102.67
2019-03-22T07:02:45.173Z,87.30
2019-03-22T07:05:16.531Z,83.67
2019-03-22T07:07:47.284Z,74.77
2019-03-22T07:10:18.323Z,94.27
2019-03-22T07:12:48.917Z,84.30
2019-03-22T07:15:19.257Z,86.30
2019-03-22T07:17:49.498Z,77.40
2019-03-22T07:20:19.474Z,82.40
2019-03-22T07:22:49.850Z,69.83
2019-03-22T07:25:20.167Z,75.70
2019-03-22T07:27:51.090Z,68.77
2019-03-22T07:30:21.886Z,61.83
2019-03-22T07:32:52.062Z,64.17
2019-03-22T07:35:22.070Z,62.40
2019-03-22T07:37:52.414Z,61.00
2019-03-22T07:40:23.521Z,65.53
2019-03-22T07:42:53.986Z,61.70
2019-03-22T07:45:27.107Z,58.57
2019-03-22T07:47:57.627Z,55.30
2019-03-22T07:50:28.238Z,52.07
2019-03-22T07:52:59.382Z,59.67
2019-03-22T07:55:30.057Z,49.83
2019-03-22T07:58:00.556Z,48.97
2019-03-22T08:00:31.357Z,45.70
2019-03-22T08:03:02.279Z,48.07
2019-03-22T08:05:32.937Z,41.97
2019-03-22T08:08:03.108Z,45.40
2019-03-22T08:10:33.080Z,40.53
2019-03-22T08:13:04.423Z,37.63
2019-03-22T08:15:35.705Z,39.70
2019-03-22T08:18:24.463Z,41.27
2019-03-22T08:20:55.547Z,39.40
2019-03-22T08:23:29.585Z,33.80
2019-03-22T08:25:59.720Z,32.20
2019-03-22T08:28:30.282Z,32.47
2019-03-22T08:31:01.213Z,36.07
2019-03-22T08:33:33.438Z,33.70
2019-03-22T08:36:03.695Z,28.63
2019-03-22T08:38:33.676Z,30.20
2019-03-22T08:41:06.654Z,23.23
2019-03-22T08:43:36.960Z,25.63
2019-03-22T08:46:07.172Z,27.70
2019-03-22T08:48:38.568Z,34.00
2019-03-22T08:51:10.011Z,25.23
2019-03-22T08:53:54.781Z,24.93
2019-03-22T08:56:15.667Z,22.33
2019-03-22T08:58:45.805Z,25.50
2019-03-22T09:01:16.768Z,24.17
2019-03-22T09:03:47.623Z,18.60
2019-03-22T09:06:18.563Z,18.47
2019-03-22T09:08:49.186Z,19.80
2019-03-22T09:11:19.094Z,20.90
2019-03-22T09:13:49.324Z,17.13
2019-03-22T09:16:19.922Z,18.87
2019-03-22T09:18:50.304Z,18.30
2019-03-22T09:21:20.789Z,16.80
2019-03-22T09:23:51.369Z,16.87
2019-03-22T09:26:21.687Z,13.80
2019-03-22T09:28:54.231Z,13.80
2019-03-22T09:31:24.585Z,15.70
2019-03-22T09:33:54.750Z,8.77
2019-03-22T09:36:25.468Z,10.23
2019-03-22T09:38:56.063Z,10.50
2019-03-22T09:41:27.384Z,9.10
2019-03-22T09:43:58.148Z,9.90
2019-03-22T09:46:28.570Z,10.20
2019-03-22T09:48:59.501Z,9.03
2019-03-22T09:51:29.834Z,10.30
2019-03-22T09:54:00.782Z,16.10
2019-03-22T09:56:31.427Z,9.33
2019-03-22T09:59:01.911Z,12.30
2019-03-22T10:01:32.745Z,13.13
2019-03-22T10:04:03.111Z,12.13
2019-03-22T10:06:33.642Z,12.37
2019-03-22T10:09:06.209Z,12.90
2019-03-22T10:11:36.819Z,11.77
2019-03-22T10:14:07.065Z,11.40
2019-03-22T10:16:37.395Z,14.17
2019-03-22T10:19:07.638Z,10.07
2019-03-22T10:21:38.329Z,7.73
2019-03-22T10:24:08.827Z,5.77
2019-03-22T10:26:39.092Z,7.20
2019-03-22T10:29:10.217Z,7.10
2019-03-22T10:31:40.607Z,6.87
2019-03-22T10:34:10.696Z,8.30
2019-03-22T10:36:40.622Z,8.70
2019-03-22T10:39:11.337Z,6.77
2019-03-22T10:41:41.303Z,6.80
2019-03-22T10:44:12.321Z,9.20
2019-03-22T10:46:42.304Z,5.10
2019-03-22T10:49:12.794Z,4.90
2019-03-22T10:51:55.805Z,6.10
2019-03-22T10:54:15.285Z,6.03
2019-03-22T10:56:46.353Z,5.57
2019-03-22T10:59:16.834Z,9.37
2019-03-22T11:02:02.304Z,5.70
2019-03-22T11:04:19.050Z,7.20
2019-03-22T11:06:49.413Z,6.23
2019-03-22T11:09:19.781Z,5.33
2019-03-22T11:11:50.664Z,6.27
2019-03-22T11:14:21.033Z,6.13
2019-03-22T11:16:53.168Z,5.67
2019-03-22T11:19:23.530Z,6.60
2019-03-22T11:21:54.102Z,7.10
2019-03-22T11:24:24.412Z,6.40
2019-03-22T11:26:54.707Z,6.53
2019-03-22T11:29:25.477Z,8.07
2019-03-22T11:31:56.090Z,7.00
2019-03-22T11:34:26.344Z,6.20
2019-03-22T11:36:57.243Z,6.43
2019-03-22T11:39:28.307Z,7.40
2019-03-22T11:41:58.729Z,11.50
2019-03-22T11:44:28.715Z,10.90
2019-03-22T11:46:59.467Z,8.50
2019-03-22T11:49:30.101Z,7.10
2019-03-22T11:52:00.326Z,8.97
2019-03-22T11:54:31.808Z,12.27
2019-03-22T11:57:02.063Z,9.40
2019-03-22T11:59:32.609Z,7.87
2019-03-22T12:02:02.902Z,7.43
2019-03-22T12:04:33.392Z,5.30
2019-03-22T12:07:04.177Z,6.33
2019-03-22T12:09:34.526Z,5.53
2019-03-22T12:12:04.527Z,4.43
2019-03-22T12:14:34.897Z,5.40
2019-03-22T12:17:06.017Z,6.67
2019-03-22T12:19:36.297Z,8.50
2019-03-22T12:22:06.242Z,8.20
2019-03-22T12:24:37.475Z,7.83
2019-03-22T12:27:08.634Z,7.30
2019-03-22T12:29:39.529Z,8.20
2019-03-22T12:32:09.957Z,5.70
2019-03-22T12:34:40.490Z,7.03
2019-03-22T12:37:10.811Z,6.67
2019-03-22T12:39:41.987Z,7.40
2019-03-22T12:42:13.143Z,8.37
2019-03-22T12:44:44.140Z,14.20
2019-03-22T12:47:14.813Z,6.90
2019-03-22T12:49:45.723Z,6.43
2019-03-22T12:52:16.322Z,5.80
2019-03-22T12:54:46.586Z,6.93
2019-03-22T12:57:18.659Z,8.00
2019-03-22T12:59:49.267Z,11.73
2019-03-22T13:02:19.621Z,8.50
2019-03-22T13:04:49.954Z,8.67
2019-03-22T13:07:19.832Z,14.20
2019-03-22T13:09:50.463Z,11.53
2019-03-22T13:12:20.405Z,9.03
2019-03-22T13:14:51.444Z,11.90
2019-03-22T13:17:21.481Z,9.57
2019-03-22T13:19:52.104Z,8.60
2019-03-22T13:22:23.240Z,12.43
2019-03-22T13:24:53.636Z,8.73
2019-03-22T13:27:24.333Z,6.57
2019-03-22T13:29:54.914Z,5.50
2019-03-22T13:32:25.249Z,6.67
2019-03-22T13:34:56.180Z,5.90
2019-03-22T13:37:26.811Z,5.30
2019-03-22T13:39:57.499Z,4.27
2019-03-22T13:42:28.471Z,6.00
2019-03-22T13:44:59.000Z,4.60
2019-03-22T13:47:29.396Z,4.83
2019-03-22T13:50:00.408Z,6.70
2019-03-22T13:52:31.202Z,7.00
2019-03-22T13:55:03.200Z,5.33
2019-03-22T13:57:33.370Z,5.97
2019-03-22T14:00:04.130Z,7.93
2019-03-22T14:02:34.898Z,5.23
2019-03-22T14:05:06.106Z,8.40
2019-03-22T14:07:36.309Z,5.73
2019-03-22T14:10:07.563Z,5.73
2019-03-22T14:12:37.568Z,5.77
2019-03-22T14:15:08.963Z,7.80
2019-03-22T14:17:39.269Z,5.50
2019-03-22T14:20:11.487Z,7.20
2019-03-22T14:22:41.886Z,7.60
2019-03-22T14:25:12.628Z,6.30
2019-03-22T14:27:43.258Z,7.07
2019-03-22T14:30:13.960Z,6.80
2019-03-22T14:32:44.945Z,6.90
2019-03-22T14:35:14.880Z,8.63
2019-03-22T14:37:44.858Z,3.43
2019-03-22T14:40:15.808Z,6.63
2019-03-22T14:42:46.547Z,10.47
2019-03-22T14:45:17.536Z,6.03
2019-03-22T14:47:48.412Z,7.77
2019-03-22T14:50:19.016Z,8.43
2019-03-22T14:52:49.277Z,6.07
2019-03-22T14:55:19.206Z,5.77
2019-03-22T14:57:52.254Z,6.27
2019-03-22T15:00:21.638Z,4.80
2019-03-22T15:02:52.610Z,6.90
2019-03-22T15:05:23.749Z,5.20
2019-03-22T15:07:54.007Z,5.67
2019-03-22T15:10:24.917Z,5.00
2019-03-22T15:12:55.261Z,6.40
2019-03-22T15:15:37.842Z,9.03
2019-03-22T15:18:27.476Z,7.63
2019-03-22T15:21:31.985Z,6.63
2019-03-22T15:24:29.990Z,7.00
2019-03-22T15:27:17.971Z,5.47
2019-03-22T15:30:06.280Z,5.60
2019-03-22T15:33:01.971Z,8.43
2019-03-22T15:35:52.845Z,6.73
2019-03-22T15:38:50.507Z,4.40
2019-03-22T15:41:20.949Z,8.70
2019-03-22T15:43:51.659Z,6.97
2019-03-22T15:46:22.183Z,5.80
2019-03-22T15:48:53.168Z,5.57
2019-03-22T15:51:25.285Z,5.17
2019-03-22T15:53:55.982Z,5.43
2019-03-22T15:56:26.497Z,8.80
2019-03-22T15:58:56.927Z,7.20
2019-03-22T16:01:27.085Z,6.70
2019-03-22T16:03:57.704Z,11.17
2019-03-22T16:06:27.625Z,8.03
2019-03-22T16:08:57.838Z,7.30
2019-03-22T16:11:28.061Z,5.33
2019-03-22T16:13:58.310Z,4.63
2019-03-22T16:16:28.226Z,4.70
2019-03-22T16:18:58.490Z,3.63
2019-03-22T16:21:28.838Z,5.13
2019-03-22T16:23:59.172Z,4.67
2019-03-22T16:26:29.749Z,6.00
2019-03-22T16:29:00.689Z,8.73
2019-03-22T16:31:31.150Z,5.40
2019-03-22T16:34:01.487Z,6.50
2019-03-22T16:36:31.814Z,4.10
2019-03-22T16:39:01.765Z,8.80
2019-03-22T16:41:31.725Z,5.83
2019-03-22T16:44:02.265Z,5.10
2019-03-22T16:46:33.187Z,4.40
2019-03-22T16:49:03.576Z,7.87
2019-03-22T16:51:33.655Z,7.00
2019-03-22T16:54:03.878Z,6.63
2019-03-22T16:56:34.239Z,5.00
2019-03-22T16:59:04.915Z,6.17
2019-03-22T17:01:35.243Z,7.17
2019-03-22T17:04:05.638Z,5.53
2019-03-22T17:06:35.829Z,4.47
2019-03-22T17:09:07.611Z,5.60
2019-03-22T17:11:37.948Z,6.97
2019-03-22T17:14:07.861Z,4.50
2019-03-22T17:16:38.969Z,4.90
2019-03-22T17:19:09.862Z,6.03
2019-03-22T17:21:40.475Z,4.90
2019-03-22T17:24:11.053Z,3.67
2019-03-22T17:26:41.738Z,5.20
2019-03-22T17:29:12.355Z,7.97
2019-03-22T17:31:44.073Z,5.97
2019-03-22T17:34:14.791Z,6.63
2019-03-22T17:36:45.570Z,4.67
2019-03-22T17:39:17.435Z,8.80
2019-03-22T17:41:47.474Z,6.83
2019-03-22T17:44:17.726Z,8.37
2019-03-22T17:46:48.695Z,6.57
2019-03-22T17:49:19.158Z,9.10
2019-03-22T17:51:50.141Z,6.47
2019-03-22T17:54:20.758Z,10.10
2019-03-22T17:56:51.382Z,9.20
2019-03-22T17:59:21.927Z,7.97
2019-03-22T18:01:52.474Z,7.80
2019-03-22T18:04:24.319Z,13.57
2019-03-22T18:06:54.848Z,10.20
2019-03-22T18:09:25.172Z,10.10
2019-03-22T18:11:55.119Z,11.10
2019-03-22T18:14:27.030Z,6.90
2019-03-22T18:16:58.308Z,8.40
2019-03-22T18:19:28.618Z,9.00
2019-03-22T18:21:59.453Z,8.20
2019-03-22T18:24:29.741Z,9.67
2019-03-22T18:27:00.160Z,10.13
2019-03-22T18:29:30.451Z,9.10
2019-03-22T18:32:00.365Z,12.43
2019-03-22T18:34:34.551Z,10.47
2019-03-22T18:37:02.985Z,7.90
2019-03-22T18:39:33.822Z,9.03
2019-03-22T18:42:04.469Z,10.30
2019-03-22T18:44:35.022Z,11.60
2019-03-22T18:47:05.273Z,12.33
2019-03-22T18:49:35.801Z,13.43
2019-03-22T18:52:08.149Z,10.73
2019-03-22T18:54:37.820Z,10.70
2019-03-22T18:57:08.517Z,13.93
2019-03-22T18:59:39.045Z,13.73
2019-03-22T19:02:08.958Z,10.00
2019-03-22T19:04:43.867Z,13.73
2019-03-22T19:07:11.318Z,14.03
2019-03-22T19:09:41.559Z,13.43
2019-03-22T19:12:11.593Z,13.87
2019-03-22T19:14:42.012Z,14.50
2019-03-22T19:17:12.310Z,15.60
2019-03-22T19:19:43.175Z,17.23
2019-03-22T19:22:13.050Z,16.40
2019-03-22T19:24:43.359Z,13.23
2019-03-22T19:27:13.249Z,14.90
2019-03-22T19:29:43.458Z,13.43
2019-03-22T19:32:13.942Z,17.97
2019-03-22T19:34:53.925Z,12.77
2019-03-22T19:37:16.576Z,12.50
2019-03-22T19:39:46.853Z,13.57
2019-03-22T19:42:17.156Z,14.80
2019-03-22T19:44:47.879Z,15.20
2019-03-22T19:47:18.145Z,14.43
2019-03-22T19:49:48.733Z,15.53
2019-03-22T19:52:19.500Z,13.77
2019-03-22T19:54:50.585Z,13.20
2019-03-22T19:57:20.745Z,16.07
2019-03-22T19:59:50.986Z,13.60
2019-03-22T20:02:21.785Z,18.10
2019-03-22T20:04:52.635Z,11.77
2019-03-22T20:07:26.828Z,14.70
2019-03-22T20:09:55.231Z,15.03
2019-03-22T20:12:25.112Z,15.57
2019-03-22T20:14:55.643Z,18.27
2019-03-22T20:17:26.893Z,18.97
2019-03-22T20:19:57.858Z,17.50
2019-03-22T20:22:28.595Z,19.90
2019-03-22T20:24:58.814Z,19.00
2019-03-22T20:27:29.038Z,17.43
2019-03-22T20:29:59.259Z,20.80
2019-03-22T20:32:29.181Z,20.27
2019-03-22T20:34:59.706Z,21.43
2019-03-22T20:37:30.338Z,22.17
2019-03-22T20:40:00.973Z,17.80
2019-03-22T20:42:31.163Z,22.30
2019-03-22T20:45:01.813Z,19.70
2019-03-22T20:47:31.650Z,25.50
2019-03-22T20:50:02.188Z,25.70
2019-03-22T20:52:32.433Z,27.23
2019-03-22T20:55:02.386Z,32.60
2019-03-22T20:57:32.701Z,30.03
2019-03-22T21:00:03.169Z,29.90
2019-03-22T21:02:33.552Z,35.50
2019-03-22T21:05:04.130Z,33.60
2019-03-22T21:07:35.081Z,25.93
2019-03-22T21:10:05.953Z,36.47
2019-03-22T21:12:36.687Z,37.67
2019-03-22T21:15:07.787Z,36.87
2019-03-22T21:17:38.059Z,33.30
2019-03-22T21:20:08.580Z,36.17
2019-03-22T21:22:38.506Z,38.60
2019-03-22T21:25:09.510Z,37.50
2019-03-22T21:27:39.905Z,38.47
2019-03-22T21:30:10.127Z,37.27
2019-03-22T21:32:45.244Z,36.70
2019-03-22T21:35:22.059Z,28.80
2019-03-22T21:37:43.754Z,39.50
2019-03-22T21:40:14.151Z,36.00
2019-03-22T21:42:44.034Z,33.33
2019-03-22T21:45:14.728Z,32.50
2019-03-22T21:47:44.966Z,32.73
2019-03-22T21:50:15.908Z,32.90
2019-03-22T21:52:45.814Z,35.93
2019-03-22T21:55:16.542Z,34.40
2019-03-22T21:57:46.950Z,36.23
2019-03-22T22:00:17.616Z,33.33
2019-03-22T22:02:48.292Z,38.93
2019-03-22T22:05:18.533Z,34.83
2019-03-22T22:07:49.217Z,39.07
2019-03-22T22:10:19.806Z,32.23
2019-03-22T22:12:50.578Z,37.80
2019-03-22T22:15:21.413Z,37.30
2019-03-22T22:17:52.047Z,31.63
2019-03-22T22:20:28.980Z,34.13
2019-03-22T22:22:54.602Z,30.27
2019-03-22T22:25:25.273Z,35.37
2019-03-22T22:27:56.137Z,34.63
2019-03-22T22:30:27.107Z,29.93
2019-03-22T22:32:57.902Z,38.13
2019-03-22T22:35:28.841Z,32.50
2019-03-22T22:37:59.314Z,36.60
2019-03-22T22:40:30.318Z,33.17
2019-03-22T22:43:01.110Z,28.20
2019-03-22T22:45:31.365Z,35.63
2019-03-22T22:48:02.305Z,35.33
2019-03-22T22:50:32.222Z,31.10
2019-03-22T22:53:02.506Z,29.93
2019-03-22T22:55:32.750Z,32.67
2019-03-22T22:58:03.815Z,34.10
2019-03-22T23:00:35.217Z,32.93
2019-03-22T23:03:05.934Z,34.00
2019-03-22T23:05:36.264Z,34.13
2019-03-22T23:08:06.953Z,36.07
2019-03-22T23:10:37.479Z,35.13
2019-03-22T23:13:08.110Z,35.50
2019-03-22T23:15:38.367Z,38.63
2019-03-22T23:18:08.534Z,33.53
2019-03-22T23:20:39.161Z,34.73
2019-03-22T23:23:10.130Z,39.97
2019-03-22T23:25:39.983Z,37.97
2019-03-22T23:28:10.097Z,32.00
2019-03-22T23:30:40.695Z,31.90
2019-03-22T23:33:10.545Z,34.10
2019-03-22T23:35:40.961Z,34.80
2019-03-22T23:38:11.741Z,34.93
2019-03-22T23:40:41.626Z,38.17
2019-03-22T23:43:12.491Z,39.23
2019-03-22T23:45:43.411Z,39.93
2019-03-22T23:48:14.310Z,41.30
2019-03-22T23:50:44.526Z,39.90
2019-03-22T23:53:14.748Z,33.70
2019-03-22T23:55:44.977Z,40.37
2019-03-22T23:58:14.853Z,34.17
